createdAt,value
2018-11-10T00:02:12.125Z,35.17
2018-11-10T00:04:39.462Z,41.50
2018-11-10T00:07:06.844Z,40.70
2018-11-10T00:09:34.116Z,38.45
2018-11-10T00:12:01.392Z,41.13
2018-11-10T00:14:28.648Z,37.50
2018-11-10T00:16:55.920Z,34.17
2018-11-10T00:19:23.204Z,36.53
2018-11-10T00:21:50.470Z,41.77
2018-11-10T00:24:17.884Z,39.10
2018-11-10T00:26:45.172Z,39.25
2018-11-10T00:29:12.468Z,37.05
2018-11-10T00:31:39.781Z,33.25
2018-11-10T00:34:07.081Z,32.45
2018-11-10T00:36:34.369Z,35.48
2018-11-10T00:39:01.683Z,35.85
2018-11-10T00:41:28.960Z,36.47
2018-11-10T00:43:56.260Z,33.23
2018-11-10T00:46:23.553Z,33.48
2018-11-10T00:48:50.844Z,37.90
2018-11-10T00:51:18.128Z,34.43
2018-11-10T00:53:45.481Z,32.83
2018-11-10T00:56:12.772Z,30.85
2018-11-10T00:58:40.141Z,34.08
2018-11-10T01:01:07.435Z,31.12
2018-11-10T01:03:34.740Z,31.47
2018-11-10T01:06:02.012Z,31.42
2018-11-10T01:08:29.317Z,30.40
2018-11-10T01:10:56.652Z,29.70
2018-11-10T01:13:23.925Z,29.50
2018-11-10T01:15:51.259Z,27.95
2018-11-10T01:18:18.544Z,31.68
2018-11-10T01:20:45.813Z,30.02
2018-11-10T01:23:13.091Z,31.77
2018-11-10T01:25:40.348Z,29.77
2018-11-10T01:28:07.669Z,32.35
2018-11-10T01:30:35.011Z,32.07
2018-11-10T01:33:02.306Z,31.45
2018-11-10T01:35:29.616Z,30.97
2018-11-10T01:37:56.884Z,31.52
2018-11-10T01:40:24.159Z,29.00
2018-11-10T01:42:51.416Z,29.48
2018-11-10T01:45:18.705Z,31.02
2018-11-10T01:47:46.438Z,30.77
2018-11-10T01:50:13.782Z,27.90
2018-11-10T01:52:41.545Z,31.45
2018-11-10T01:55:09.637Z,31.25
2018-11-10T01:57:37.008Z,30.93
2018-11-10T02:00:07.555Z,33.08
2018-11-10T02:02:34.864Z,30.75
2018-11-10T02:05:02.141Z,30.75
2018-11-10T02:07:29.409Z,28.80
2018-11-10T02:09:56.697Z,29.60
2018-11-10T02:12:23.974Z,27.58
2018-11-10T02:14:51.278Z,28.80
2018-11-10T02:17:18.545Z,28.85
2018-11-10T02:19:45.912Z,28.70
2018-11-10T02:22:13.232Z,31.52
2018-11-10T02:24:40.530Z,31.25
2018-11-10T02:27:12.485Z,30.17
2018-11-10T02:29:39.764Z,31.07
2018-11-10T02:32:07.062Z,29.67
2018-11-10T02:34:34.329Z,30.65
2018-11-10T02:37:01.621Z,29.52
2018-11-10T02:39:28.905Z,29.92
2018-11-10T02:41:56.192Z,30.92
2018-11-10T02:44:23.485Z,31.00
2018-11-10T02:46:50.800Z,32.28
2018-11-10T02:49:18.092Z,30.77
2018-11-10T02:51:45.378Z,31.77
2018-11-10T02:54:12.650Z,32.63
2018-11-10T02:56:39.918Z,35.03
2018-11-10T02:59:07.194Z,31.93
2018-11-10T03:01:34.493Z,34.95
2018-11-10T03:04:01.765Z,33.80
2018-11-10T03:06:29.041Z,35.08
2018-11-10T03:08:56.332Z,33.85
2018-11-10T03:11:23.637Z,33.10
2018-11-10T03:13:50.906Z,35.17
2018-11-10T03:16:18.296Z,34.98
2018-11-10T03:18:45.520Z,33.05
2018-11-10T03:21:12.813Z,38.55
2018-11-10T03:23:40.083Z,37.00
2018-11-10T03:26:07.373Z,34.83
2018-11-10T03:28:34.676Z,39.53
2018-11-10T03:31:01.940Z,36.50
2018-11-10T03:33:29.208Z,36.93
2018-11-10T03:35:56.499Z,36.40
2018-11-10T03:38:23.780Z,37.15
2018-11-10T03:40:51.090Z,35.38
2018-11-10T03:43:18.375Z,33.48
2018-11-10T03:45:45.721Z,30.23
2018-11-10T03:48:12.984Z,32.10
2018-11-10T03:50:40.249Z,32.08
2018-11-10T03:53:07.557Z,30.80
2018-11-10T03:55:34.828Z,31.87
2018-11-10T03:58:02.109Z,32.38
2018-11-10T04:00:29.407Z,30.90
2018-11-10T04:02:56.715Z,29.45
2018-11-10T04:05:23.985Z,32.33
2018-11-10T04:07:51.304Z,33.35
2018-11-10T04:10:18.564Z,33.50
2018-11-10T04:12:45.839Z,31.93
2018-11-10T04:15:13.144Z,27.70
2018-11-10T04:17:40.464Z,28.80
2018-11-10T04:20:08.672Z,32.67
2018-11-10T04:22:36.852Z,31.23
2018-11-10T04:25:06.372Z,29.40
2018-11-10T04:27:34.005Z,30.10
2018-11-10T04:30:02.081Z,28.95
2018-11-10T04:32:29.421Z,28.63
2018-11-10T04:34:56.685Z,27.57
2018-11-10T04:37:24.446Z,27.10
2018-11-10T04:39:51.728Z,28.10
2018-11-10T04:42:18.999Z,26.85
2018-11-10T04:44:46.309Z,25.40
2018-11-10T04:47:13.613Z,27.00
2018-11-10T04:49:40.954Z,28.10
2018-11-10T04:52:08.777Z,26.97
2018-11-10T04:54:36.032Z,25.27
2018-11-10T04:57:03.312Z,23.87
2018-11-10T04:59:30.608Z,23.17
2018-11-10T05:01:57.964Z,24.60
2018-11-10T05:04:25.236Z,25.05
2018-11-10T05:06:52.544Z,24.95
2018-11-10T05:09:19.836Z,23.27
2018-11-10T05:11:47.116Z,26.15
2018-11-10T05:14:14.432Z,26.52
2018-11-10T05:16:41.709Z,26.48
2018-11-10T05:19:08.966Z,25.02
2018-11-10T05:21:37.061Z,25.50
2018-11-10T05:24:04.804Z,22.90
2018-11-10T05:26:32.115Z,23.62
2018-11-10T05:28:59.384Z,24.92
2018-11-10T05:31:26.660Z,23.47
2018-11-10T05:33:53.916Z,24.57
2018-11-10T05:36:21.184Z,23.00
2018-11-10T05:38:48.476Z,25.55
2018-11-10T05:41:15.757Z,24.40
2018-11-10T05:43:43.028Z,25.17
2018-11-10T05:46:10.304Z,23.70
2018-11-10T05:48:37.569Z,26.60
2018-11-10T05:51:04.888Z,25.85
2018-11-10T05:53:32.156Z,26.12
2018-11-10T05:55:59.454Z,26.80
2018-11-10T05:58:26.748Z,25.90
2018-11-10T06:00:54.020Z,25.70
2018-11-10T06:03:21.367Z,24.70
2018-11-10T06:05:48.637Z,25.35
2018-11-10T06:08:15.897Z,26.15
2018-11-10T06:10:43.249Z,24.45
2018-11-10T06:13:10.504Z,25.43
2018-11-10T06:15:37.843Z,27.42
2018-11-10T06:18:05.120Z,25.00
2018-11-10T06:20:32.396Z,27.37
2018-11-10T06:22:59.700Z,26.00
2018-11-10T06:25:26.984Z,26.87
2018-11-10T06:27:54.281Z,28.10
2018-11-10T06:30:21.544Z,26.50
2018-11-10T06:32:48.822Z,26.65
2018-11-10T06:35:16.091Z,28.12
2018-11-10T06:37:43.369Z,28.47
2018-11-10T06:40:11.969Z,31.35
2018-11-10T06:42:39.646Z,26.20
2018-11-10T06:45:07.009Z,29.65
2018-11-10T06:47:34.559Z,28.42
2018-11-10T06:50:01.872Z,27.10
2018-11-10T06:52:29.158Z,28.40
2018-11-10T06:54:56.426Z,26.55
2018-11-10T06:57:23.700Z,30.12
2018-11-10T06:59:50.961Z,28.10
2018-11-10T07:02:18.248Z,27.00
2018-11-10T07:04:45.511Z,27.17
2018-11-10T07:07:12.788Z,29.90
2018-11-10T07:09:40.077Z,30.27
2018-11-10T07:12:07.416Z,27.82
2018-11-10T07:14:34.681Z,31.82
2018-11-10T07:17:02.085Z,27.35
2018-11-10T07:19:29.352Z,28.25
2018-11-10T07:21:56.628Z,29.18
2018-11-10T07:24:23.905Z,31.73
2018-11-10T07:26:51.198Z,27.15
2018-11-10T07:29:18.492Z,25.50
2018-11-10T07:31:45.925Z,25.30
2018-11-10T07:34:13.322Z,24.45
2018-11-10T07:36:40.584Z,29.80
2018-11-10T07:39:08.798Z,27.07
2018-11-10T07:41:36.069Z,27.27
2018-11-10T07:44:03.394Z,26.27
2018-11-10T07:46:30.665Z,24.60
2018-11-10T07:48:57.953Z,24.45
2018-11-10T07:51:25.317Z,27.52
2018-11-10T07:53:52.510Z,25.00
2018-11-10T07:56:19.793Z,24.55
2018-11-10T07:58:47.075Z,24.95
2018-11-10T08:01:14.350Z,26.35
2018-11-10T08:03:41.644Z,26.05
2018-11-10T08:06:08.962Z,25.82
2018-11-10T08:08:36.244Z,27.15
2018-11-10T08:11:03.592Z,25.70
2018-11-10T08:13:30.873Z,24.23
2018-11-10T08:15:58.140Z,23.45
2018-11-10T08:18:25.453Z,26.15
2018-11-10T08:20:52.722Z,23.50
2018-11-10T08:23:20.013Z,21.70
2018-11-10T08:25:47.305Z,23.38
2018-11-10T08:28:14.585Z,22.70
2018-11-10T08:30:41.880Z,20.68
2018-11-10T08:33:09.166Z,22.50
2018-11-10T08:35:36.465Z,21.68
2018-11-10T08:38:03.752Z,22.87
2018-11-10T08:40:31.039Z,22.87
2018-11-10T08:42:58.316Z,22.30
2018-11-10T08:45:25.604Z,23.92
2018-11-10T08:47:52.875Z,21.50
2018-11-10T08:50:20.161Z,22.95
2018-11-10T08:52:47.437Z,23.57
2018-11-10T08:55:14.728Z,21.37
2018-11-10T08:57:42.616Z,20.32
2018-11-10T09:00:10.381Z,20.90
2018-11-10T09:02:37.757Z,21.17
2018-11-10T09:05:06.254Z,21.43
2018-11-10T09:07:33.518Z,19.80
2018-11-10T09:10:00.941Z,21.12
2018-11-10T09:12:28.076Z,20.35
2018-11-10T09:14:55.385Z,20.65
2018-11-10T09:17:22.648Z,18.12
2018-11-10T09:19:49.916Z,19.73
2018-11-10T09:22:17.192Z,18.35
2018-11-10T09:24:44.505Z,21.23
2018-11-10T09:27:12.321Z,17.07
2018-11-10T09:29:42.163Z,17.70
2018-11-10T09:32:09.528Z,18.82
2018-11-10T09:34:36.808Z,18.90
2018-11-10T09:37:04.308Z,18.65
2018-11-10T09:39:31.576Z,18.45
2018-11-10T09:41:58.902Z,18.27
2018-11-10T09:44:26.152Z,16.85
2018-11-10T09:46:53.441Z,18.40
2018-11-10T09:49:20.721Z,26.27
2018-11-10T09:51:48.000Z,22.00
2018-11-10T09:54:15.269Z,18.15
2018-11-10T09:56:42.631Z,18.00
2018-11-10T09:59:09.905Z,17.60
2018-11-10T10:01:37.386Z,16.57
2018-11-10T10:04:05.037Z,18.80
2018-11-10T10:06:32.417Z,18.60
2018-11-10T10:08:59.786Z,19.07
2018-11-10T10:11:26.984Z,18.80
2018-11-10T10:13:54.284Z,19.40
2018-11-10T10:16:21.687Z,17.63
2018-11-10T10:18:48.813Z,17.32
2018-11-10T10:21:16.081Z,18.57
2018-11-10T10:23:43.352Z,28.07
2018-11-10T10:26:10.630Z,20.90
2018-11-10T10:28:38.031Z,33.77
2018-11-10T10:31:05.268Z,17.77
2018-11-10T10:33:32.536Z,16.87
2018-11-10T10:35:59.809Z,17.57
2018-11-10T10:38:27.085Z,17.30
2018-11-10T10:40:54.352Z,18.03
2018-11-10T10:43:21.633Z,16.70
2018-11-10T10:45:48.888Z,17.30
2018-11-10T10:48:16.168Z,18.33
2018-11-10T10:50:43.446Z,18.30
2018-11-10T10:53:10.728Z,17.37
2018-11-10T10:55:38.032Z,17.60
2018-11-10T10:58:05.924Z,17.57
2018-11-10T11:00:38.804Z,17.47
2018-11-10T11:03:11.870Z,20.23
2018-11-10T11:05:43.327Z,19.63
2018-11-10T11:08:10.658Z,24.50
2018-11-10T11:10:37.932Z,17.70
2018-11-10T11:13:05.374Z,18.73
2018-11-10T11:15:32.719Z,18.20
2018-11-10T11:17:59.933Z,17.70
2018-11-10T11:20:27.211Z,18.53
2018-11-10T11:22:54.477Z,18.77
2018-11-10T11:25:21.754Z,20.87
2018-11-10T11:27:49.028Z,19.13
2018-11-10T11:30:16.320Z,19.03
2018-11-10T11:32:43.582Z,16.33
2018-11-10T11:35:12.103Z,18.57
2018-11-10T11:37:40.013Z,16.60
2018-11-10T11:40:09.012Z,19.70
2018-11-10T11:42:36.590Z,17.27
2018-11-10T11:45:04.676Z,19.30
2018-11-10T11:47:31.941Z,22.00
2018-11-10T11:49:59.339Z,25.27
2018-11-10T11:52:26.504Z,20.37
2018-11-10T11:54:53.837Z,19.97
2018-11-10T11:57:21.105Z,18.77
2018-11-10T11:59:48.408Z,19.50
2018-11-10T12:02:15.753Z,19.17
2018-11-10T12:04:43.135Z,19.40
2018-11-10T12:07:10.408Z,18.33
2018-11-10T12:09:37.695Z,19.17
2018-11-10T12:12:05.092Z,19.40
2018-11-10T12:14:32.356Z,20.53
2018-11-10T12:16:59.708Z,23.03
2018-11-10T12:19:27.268Z,29.20
2018-11-10T12:21:54.535Z,21.03
2018-11-10T12:24:21.813Z,19.97
2018-11-10T12:26:49.176Z,22.17
2018-11-10T12:29:16.357Z,22.73
2018-11-10T12:31:43.664Z,18.57
2018-11-10T12:34:10.935Z,21.00
2018-11-10T12:36:38.206Z,20.27
2018-11-10T12:39:06.545Z,20.37
2018-11-10T12:41:33.824Z,21.63
2018-11-10T12:44:01.080Z,24.90
2018-11-10T12:46:28.360Z,25.00
2018-11-10T12:48:55.729Z,24.57
2018-11-10T12:51:23.344Z,24.50
2018-11-10T12:53:50.612Z,21.57
2018-11-10T12:56:17.875Z,26.37
2018-11-10T12:58:45.138Z,21.90
2018-11-10T13:01:12.435Z,20.60
2018-11-10T13:03:39.775Z,22.20
2018-11-10T13:06:07.015Z,20.67
2018-11-10T13:08:34.280Z,21.03
2018-11-10T13:11:01.651Z,21.50
2018-11-10T13:13:28.821Z,19.90
2018-11-10T13:15:56.126Z,20.77
2018-11-10T13:18:23.398Z,20.57
2018-11-10T13:20:50.729Z,24.10
2018-11-10T13:23:17.942Z,21.80
2018-11-10T13:25:45.192Z,20.50
2018-11-10T13:28:12.464Z,21.67
2018-11-10T13:30:39.734Z,18.13
2018-11-10T13:33:07.233Z,20.30
2018-11-10T13:35:34.528Z,22.53
2018-11-10T13:38:01.844Z,23.90
2018-11-10T13:40:29.080Z,27.03
2018-11-10T13:42:56.393Z,24.73
2018-11-10T13:45:23.619Z,26.37
2018-11-10T13:47:51.204Z,26.13
2018-11-10T13:50:18.489Z,29.20
2018-11-10T13:52:46.338Z,21.50
2018-11-10T13:55:13.460Z,20.40
2018-11-10T13:57:40.740Z,19.83
2018-11-10T14:00:11.620Z,20.13
2018-11-10T14:02:38.904Z,20.80
2018-11-10T14:05:06.409Z,22.03
2018-11-10T14:07:33.900Z,25.57
2018-11-10T14:10:01.185Z,24.47
2018-11-10T14:12:28.472Z,24.30
2018-11-10T14:14:55.727Z,23.30
2018-11-10T14:17:22.983Z,21.37
2018-11-10T14:19:50.392Z,25.10
2018-11-10T14:22:17.714Z,20.90
2018-11-10T14:24:45.005Z,26.07
2018-11-10T14:27:12.288Z,26.90
2018-11-10T14:29:39.552Z,26.50
2018-11-10T14:32:06.854Z,28.87
2018-11-10T14:34:34.119Z,24.27
2018-11-10T14:37:01.392Z,23.40
2018-11-10T14:39:28.677Z,22.03
2018-11-10T14:41:55.964Z,24.07
2018-11-10T14:44:23.232Z,24.60
2018-11-10T14:46:50.505Z,23.33
2018-11-10T14:49:17.792Z,22.23
2018-11-10T14:51:45.068Z,21.10
2018-11-10T14:54:12.344Z,22.70
2018-11-10T14:56:39.610Z,22.97
2018-11-10T14:59:06.888Z,22.80
2018-11-10T15:01:34.153Z,20.87
2018-11-10T15:04:01.525Z,17.60
2018-11-10T15:06:28.793Z,18.20
2018-11-10T15:08:56.080Z,22.10
2018-11-10T15:11:23.380Z,17.77
2018-11-10T15:13:50.620Z,18.10
2018-11-10T15:16:17.900Z,18.57
2018-11-10T15:18:45.182Z,19.30
2018-11-10T15:21:12.453Z,17.80
2018-11-10T15:23:39.734Z,20.37
2018-11-10T15:26:07.029Z,20.83
2018-11-10T15:28:34.298Z,20.37
2018-11-10T15:31:01.665Z,22.23
2018-11-10T15:33:28.971Z,23.37
2018-11-10T15:35:56.253Z,22.80
2018-11-10T15:38:23.530Z,23.80
2018-11-10T15:40:50.806Z,23.90
2018-11-10T15:43:18.077Z,20.90
2018-11-10T15:45:45.355Z,18.33
2018-11-10T15:48:12.611Z,18.57
2018-11-10T15:50:39.949Z,21.80
2018-11-10T15:53:07.217Z,20.90
2018-11-10T15:55:34.485Z,19.00
2018-11-10T15:58:01.744Z,18.83
2018-11-10T16:00:29.020Z,18.90
2018-11-10T16:02:56.272Z,19.37
2018-11-10T16:05:23.550Z,18.67
2018-11-10T16:07:50.816Z,17.40
2018-11-10T16:10:18.153Z,22.27
2018-11-10T16:12:45.464Z,27.07
2018-11-10T16:15:14.388Z,25.00
2018-11-10T16:17:41.804Z,28.07
2018-11-10T16:20:11.957Z,27.87
2018-11-10T16:22:39.492Z,30.50
2018-11-10T16:25:07.685Z,28.50
2018-11-10T16:27:35.245Z,24.57
2018-11-10T16:30:02.610Z,20.67
2018-11-10T16:32:29.925Z,18.57
2018-11-10T16:34:57.236Z,19.63
2018-11-10T16:37:24.531Z,22.07
2018-11-10T16:39:51.893Z,21.07
2018-11-10T16:42:19.190Z,18.10
2018-11-10T16:44:46.480Z,21.50
2018-11-10T16:47:13.785Z,29.77
2018-11-10T16:49:41.084Z,33.33
2018-11-10T16:52:08.369Z,33.00
2018-11-10T16:54:35.641Z,35.70
2018-11-10T16:57:03.052Z,33.90
2018-11-10T16:59:30.404Z,64.47
2018-11-10T17:01:57.827Z,53.30
2018-11-10T17:04:25.093Z,34.20
2018-11-10T17:06:52.410Z,24.60
2018-11-10T17:09:19.725Z,25.17
2018-11-10T17:11:46.996Z,23.90
2018-11-10T17:14:14.323Z,22.17
2018-11-10T17:16:41.540Z,20.97
2018-11-10T17:19:09.600Z,26.47
2018-11-10T17:21:37.004Z,26.47
2018-11-10T17:24:04.353Z,24.67
2018-11-10T17:26:31.859Z,27.43
2018-11-10T17:28:59.223Z,25.53
2018-11-10T17:31:26.500Z,30.77
2018-11-10T17:33:53.888Z,36.10
2018-11-10T17:36:21.302Z,34.43
2018-11-10T17:38:48.689Z,30.53
2018-11-10T17:41:16.158Z,25.70
2018-11-10T17:43:43.525Z,28.67
2018-11-10T17:46:10.849Z,30.50
2018-11-10T17:48:38.228Z,27.90
2018-11-10T17:51:05.503Z,23.87
2018-11-10T17:53:32.777Z,24.17
2018-11-10T17:56:00.084Z,22.00
2018-11-10T17:58:27.374Z,22.10
2018-11-10T18:00:54.684Z,20.83
2018-11-10T18:03:21.928Z,20.80
2018-11-10T18:05:49.185Z,21.20
2018-11-10T18:08:16.485Z,21.90
2018-11-10T18:10:43.743Z,20.70
2018-11-10T18:13:11.266Z,28.53
2018-11-10T18:15:38.537Z,28.77
2018-11-10T18:18:05.880Z,22.53
2018-11-10T18:20:33.143Z,22.50
2018-11-10T18:23:00.418Z,22.20
2018-11-10T18:25:27.776Z,22.83
2018-11-10T18:27:54.997Z,20.67
2018-11-10T18:30:22.278Z,21.63
2018-11-10T18:32:49.583Z,26.70
2018-11-10T18:35:17.068Z,24.97
2018-11-10T18:37:44.452Z,24.30
2018-11-10T18:40:11.873Z,24.17
2018-11-10T18:42:39.021Z,22.57
2018-11-10T18:45:07.313Z,24.27
2018-11-10T18:47:34.817Z,22.33
2018-11-10T18:50:03.339Z,25.17
2018-11-10T18:52:30.702Z,22.73
2018-11-10T18:54:58.079Z,22.63
2018-11-10T18:57:25.640Z,24.10
2018-11-10T18:59:52.740Z,25.33
2018-11-10T19:02:20.004Z,27.17
2018-11-10T19:04:47.346Z,24.13
2018-11-10T19:07:14.604Z,22.93
2018-11-10T19:09:42.031Z,25.30
2018-11-10T19:12:09.312Z,22.03
2018-11-10T19:14:36.726Z,22.67
2018-11-10T19:17:04.029Z,25.08
2018-11-10T19:19:31.309Z,24.33
2018-11-10T19:21:58.601Z,23.73
2018-11-10T19:24:25.869Z,21.43
2018-11-10T19:26:53.270Z,22.23
2018-11-10T19:29:20.603Z,22.30
2018-11-10T19:31:47.852Z,23.20
2018-11-10T19:34:15.108Z,22.50
2018-11-10T19:36:42.373Z,23.80
2018-11-10T19:39:11.062Z,22.97
2018-11-10T19:41:38.345Z,21.73
2018-11-10T19:44:06.388Z,21.93
2018-11-10T19:46:33.657Z,20.37
2018-11-10T19:49:00.945Z,20.03
2018-11-10T19:51:28.390Z,23.33
2018-11-10T19:53:55.600Z,20.70
2018-11-10T19:56:22.964Z,21.57
2018-11-10T19:58:50.241Z,20.93
2018-11-10T20:01:17.525Z,21.27
2018-11-10T20:03:44.908Z,20.53
2018-11-10T20:06:12.182Z,21.37
2018-11-10T20:08:39.513Z,20.50
2018-11-10T20:11:06.911Z,21.97
2018-11-10T20:13:34.144Z,21.50
2018-11-10T20:16:01.529Z,22.07
2018-11-10T20:18:28.830Z,22.97
2018-11-10T20:20:56.262Z,20.43
2018-11-10T20:23:23.528Z,21.77
2018-11-10T20:25:50.833Z,23.27
2018-11-10T20:28:18.312Z,22.33
2018-11-10T20:30:45.607Z,23.17
2018-11-10T20:33:13.088Z,21.20
2018-11-10T20:35:40.397Z,22.70
2018-11-10T20:38:07.845Z,21.80
2018-11-10T20:40:35.156Z,22.00
2018-11-10T20:43:02.532Z,24.60
2018-11-10T20:45:29.820Z,23.00
2018-11-10T20:47:57.097Z,23.33
2018-11-10T20:50:24.436Z,22.00
2018-11-10T20:52:51.713Z,27.00
2018-11-10T20:55:19.066Z,24.20
2018-11-10T20:57:46.340Z,25.63
2018-11-10T21:00:16.188Z,32.10
2018-11-10T21:02:43.896Z,32.40
2018-11-10T21:05:11.920Z,28.53
2018-11-10T21:07:39.208Z,29.40
2018-11-10T21:10:08.616Z,26.20
2018-11-10T21:12:35.905Z,25.67
2018-11-10T21:15:03.249Z,23.20
2018-11-10T21:17:30.538Z,23.73
2018-11-10T21:19:57.884Z,24.40
2018-11-10T21:22:25.185Z,24.27
2018-11-10T21:24:52.492Z,22.27
2018-11-10T21:27:19.800Z,23.73
2018-11-10T21:29:47.260Z,22.87
2018-11-10T21:32:14.461Z,22.97
2018-11-10T21:34:41.865Z,19.87
2018-11-10T21:37:09.170Z,22.20
2018-11-10T21:39:36.436Z,21.10
2018-11-10T21:42:03.752Z,23.40
2018-11-10T21:44:31.047Z,25.53
2018-11-10T21:46:58.402Z,24.17
2018-11-10T21:49:25.737Z,23.23
2018-11-10T21:51:53.118Z,25.80
2018-11-10T21:54:20.485Z,24.90
2018-11-10T21:56:47.780Z,25.83
2018-11-10T21:59:15.064Z,27.87
2018-11-10T22:01:42.320Z,27.27
2018-11-10T22:04:09.578Z,29.50
2018-11-10T22:06:36.832Z,26.53
2018-11-10T22:09:07.598Z,25.47
2018-11-10T22:11:34.836Z,23.77
2018-11-10T22:14:02.149Z,26.07
2018-11-10T22:16:29.421Z,25.60
2018-11-10T22:18:56.696Z,27.30
2018-11-10T22:21:24.056Z,27.50
2018-11-10T22:23:51.349Z,28.53
2018-11-10T22:26:18.721Z,27.50
2018-11-10T22:28:46.124Z,25.23
2018-11-10T22:31:13.471Z,27.37
2018-11-10T22:33:40.706Z,25.97
2018-11-10T22:36:07.961Z,29.20
2018-11-10T22:38:35.224Z,28.37
2018-11-10T22:41:02.493Z,27.17
2018-11-10T22:43:29.768Z,26.83
2018-11-10T22:45:57.024Z,25.70
2018-11-10T22:48:24.325Z,28.60
2018-11-10T22:50:51.600Z,32.97
2018-11-10T22:53:18.905Z,28.40
2018-11-10T22:55:46.209Z,28.17
2018-11-10T22:58:13.512Z,26.67
2018-11-10T23:00:46.368Z,26.50
2018-11-10T23:03:13.705Z,27.93
2018-11-10T23:05:41.065Z,25.40
2018-11-10T23:08:08.359Z,26.17
2018-11-10T23:10:35.640Z,25.00
2018-11-10T23:13:02.999Z,26.37
2018-11-10T23:15:30.281Z,28.77
2018-11-10T23:17:57.547Z,27.73
2018-11-10T23:20:24.828Z,27.77
2018-11-10T23:22:52.105Z,25.80
2018-11-10T23:25:19.488Z,26.67
2018-11-10T23:27:46.831Z,27.27
2018-11-10T23:30:16.436Z,25.63
2018-11-10T23:32:43.733Z,25.13
2018-11-10T23:35:11.572Z,25.20
2018-11-10T23:37:39.104Z,26.27
2018-11-10T23:40:08.022Z,26.03
2018-11-10T23:42:35.272Z,30.60
2018-11-10T23:45:02.947Z,30.40
2018-11-10T23:47:30.210Z,24.67
2018-11-10T23:49:57.500Z,25.10
2018-11-10T23:52:24.752Z,24.90
2018-11-10T23:54:52.052Z,26.53
2018-11-10T23:57:19.300Z,27.97
2018-11-10T23:59:46.618Z,25.30
